Canadian, Oklahoma
Current Conditions -  °F | °C
As of 12:53 AM on Thursday 23 Oct 2014 (Local Time) from KMLC Reporting Station
Few Clouds Few Clouds  
Wind Chill: 63°   Ceiling: Unl
Heat Index: 63°   Visibility: 10mi
Dew Point: 55°   Wind: 3mph
Humidity: 75%   Direction: 120°ESE
Pressure: 30.13"   Gusts: NA
Location:  35.18°N, 95.66°W
Report Text: KMLC 230553Z AUTO 12003KT 10SM FEW120 17/13 A3013 RMK AO2 SLP195 T01720128 10206 20172 402610144 58002
Loading
Personal Weather Stations






























Interactive Weather Map
Tropical Storm Tracking
New forecast layout! Learn more

10-Day Weather Forecast

Advertisements
Track Severe Weather on mobile